sensor_id;sensor_type;location;lat;lon;timestamp;P1;durP1;ratioP1;P2;durP2;ratioP2
72797;SDS011;61084;55.816;37.036;2024-03-02T00:01:09;37.55;;;18.05;;
72797;SDS011;61084;55.816;37.036;2024-03-02T00:03:38;40.80;;;18.17;;
72797;SDS011;61084;55.816;37.036;2024-03-02T00:06:06;41.67;;;18.17;;
72797;SDS011;61084;55.816;37.036;2024-03-02T00:08:32;35.25;;;17.83;;
72797;SDS011;61084;55.816;37.036;2024-03-02T00:10:59;41.80;;;19.25;;
72797;SDS011;61084;55.816;37.036;2024-03-02T00:13:26;37.85;;;18.05;;
72797;SDS011;61084;55.816;37.036;2024-03-02T00:18:40;39.78;;;18.40;;
72797;SDS011;61084;55.816;37.036;2024-03-02T00:21:05;37.15;;;18.48;;
72797;SDS011;61084;55.816;37.036;2024-03-02T00:23:35;41.13;;;18.58;;
72797;SDS011;61084;55.816;37.036;2024-03-02T00:26:01;45.20;;;19.73;;
72797;SDS011;61084;55.816;37.036;2024-03-02T00:28:36;40.67;;;20.63;;
72797;SDS011;61084;55.816;37.036;2024-03-02T00:31:04;41.72;;;19.50;;
72797;SDS011;61084;55.816;37.036;2024-03-02T00:33:33;40.45;;;18.40;;
72797;SDS011;61084;55.816;37.036;2024-03-02T00:36:00;39.10;;;18.90;;
72797;SDS011;61084;55.816;37.036;2024-03-02T00:38:27;47.53;;;18.67;;
72797;SDS011;61084;55.816;37.036;2024-03-02T00:40:53;43.35;;;19.23;;
72797;SDS011;61084;55.816;37.036;2024-03-02T00:46:04;38.95;;;18.33;;
72797;SDS011;61084;55.816;37.036;2024-03-02T00:48:30;42.28;;;18.98;;
72797;SDS011;61084;55.816;37.036;2024-03-02T00:51:02;42.00;;;19.58;;
72797;SDS011;61084;55.816;37.036;2024-03-02T00:53:29;49.15;;;20.23;;
72797;SDS011;61084;55.816;37.036;2024-03-02T00:55:56;39.58;;;18.77;;
72797;SDS011;61084;55.816;37.036;2024-03-02T00:58:22;42.60;;;20.88;;
72797;SDS011;61084;55.816;37.036;2024-03-02T01:00:48;41.38;;;19.33;;
72797;SDS011;61084;55.816;37.036;2024-03-02T01:03:14;41.75;;;19.00;;
72797;SDS011;61084;55.816;37.036;2024-03-02T01:05:43;43.67;;;19.80;;
72797;SDS011;61084;55.816;37.036;2024-03-02T01:08:09;36.67;;;18.73;;
72797;SDS011;61084;55.816;37.036;2024-03-02T01:10:36;42.08;;;20.58;;
72797;SDS011;61084;55.816;37.036;2024-03-02T01:13:02;41.20;;;18.92;;
72797;SDS011;61084;55.816;37.036;2024-03-02T01:15:28;38.33;;;18.80;;
72797;SDS011;61084;55.816;37.036;2024-03-02T01:17:54;40.65;;;18.85;;
72797;SDS011;61084;55.816;37.036;2024-03-02T01:20:20;39.65;;;18.10;;
72797;SDS011;61084;55.816;37.036;2024-03-02T01:22:47;41.28;;;18.50;;
72797;SDS011;61084;55.816;37.036;2024-03-02T01:25:13;38.47;;;17.15;;
72797;SDS011;61084;55.816;37.036;2024-03-02T01:27:39;35.20;;;17.65;;
72797;SDS011;61084;55.816;37.036;2024-03-02T01:30:05;41.03;;;18.65;;
72797;SDS011;61084;55.816;37.036;2024-03-02T01:32:32;42.78;;;19.35;;
72797;SDS011;61084;55.816;37.036;2024-03-02T01:34:57;41.42;;;18.67;;
72797;SDS011;61084;55.816;37.036;2024-03-02T01:37:23;40.35;;;18.50;;
72797;SDS011;61084;55.816;37.036;2024-03-02T01:39:49;41.63;;;18.73;;
72797;SDS011;61084;55.816;37.036;2024-03-02T01:42:15;40.63;;;17.73;;
72797;SDS011;61084;55.816;37.036;2024-03-02T01:44:41;40.03;;;17.42;;
72797;SDS011;61084;55.816;37.036;2024-03-02T01:47:07;35.78;;;17.63;;
72797;SDS011;61084;55.816;37.036;2024-03-02T01:49:33;39.15;;;18.98;;
72797;SDS011;61084;55.816;37.036;2024-03-02T01:51:59;37.20;;;18.88;;
72797;SDS011;61084;55.816;37.036;2024-03-02T01:54:25;44.17;;;18.25;;
72797;SDS011;61084;55.816;37.036;2024-03-02T01:56:51;39.92;;;18.83;;
72797;SDS011;61084;55.816;37.036;2024-03-02T01:59:17;40.05;;;18.15;;
72797;SDS011;61084;55.816;37.036;2024-03-02T02:01:43;43.47;;;18.85;;
72797;SDS011;61084;55.816;37.036;2024-03-02T02:04:09;37.13;;;17.77;;
72797;SDS011;61084;55.816;37.036;2024-03-02T02:06:35;41.95;;;18.77;;
72797;SDS011;61084;55.816;37.036;2024-03-02T02:09:01;39.85;;;18.40;;
72797;SDS011;61084;55.816;37.036;2024-03-02T02:11:27;37.83;;;18.10;;
72797;SDS011;61084;55.816;37.036;2024-03-02T02:13:53;37.90;;;18.23;;
72797;SDS011;61084;55.816;37.036;2024-03-02T02:16:21;43.08;;;18.75;;
72797;SDS011;61084;55.816;37.036;2024-03-02T02:18:47;37.10;;;18.05;;
72797;SDS011;61084;55.816;37.036;2024-03-02T02:21:13;41.50;;;17.67;;
72797;SDS011;61084;55.816;37.036;2024-03-02T02:23:39;41.92;;;19.20;;
72797;SDS011;61084;55.816;37.036;2024-03-02T02:26:05;41.97;;;19.23;;
72797;SDS011;61084;55.816;37.036;2024-03-02T02:28:31;38.55;;;18.08;;
72797;SDS011;61084;55.816;37.036;2024-03-02T02:30:56;38.70;;;18.63;;
72797;SDS011;61084;55.816;37.036;2024-03-02T02:33:23;42.13;;;17.55;;
72797;SDS011;61084;55.816;37.036;2024-03-02T02:35:49;47.10;;;18.77;;
72797;SDS011;61084;55.816;37.036;2024-03-02T02:38:15;36.92;;;18.92;;
72797;SDS011;61084;55.816;37.036;2024-03-02T02:40:41;41.25;;;19.05;;
72797;SDS011;61084;55.816;37.036;2024-03-02T02:43:07;42.22;;;18.58;;
72797;SDS011;61084;55.816;37.036;2024-03-02T02:45:32;40.33;;;17.88;;
72797;SDS011;61084;55.816;37.036;2024-03-02T02:47:58;43.83;;;19.40;;
72797;SDS011;61084;55.816;37.036;2024-03-02T02:50:26;38.30;;;17.60;;
72797;SDS011;61084;55.816;37.036;2024-03-02T02:52:52;35.70;;;18.30;;
72797;SDS011;61084;55.816;37.036;2024-03-02T02:55:18;40.78;;;18.95;;
72797;SDS011;61084;55.816;37.036;2024-03-02T02:57:44;40.72;;;17.90;;
72797;SDS011;61084;55.816;37.036;2024-03-02T03:02:44;41.53;;;18.02;;
72797;SDS011;61084;55.816;37.036;2024-03-02T03:05:13;39.92;;;18.77;;
72797;SDS011;61084;55.816;37.036;2024-03-02T03:07:40;37.38;;;17.60;;
72797;SDS011;61084;55.816;37.036;2024-03-02T03:10:07;35.88;;;17.80;;
72797;SDS011;61084;55.816;37.036;2024-03-02T03:12:34;38.97;;;18.33;;
72797;SDS011;61084;55.816;37.036;2024-03-02T03:15:01;41.88;;;19.52;;
72797;SDS011;61084;55.816;37.036;2024-03-02T03:17:30;38.30;;;18.20;;
72797;SDS011;61084;55.816;37.036;2024-03-02T03:19:56;44.60;;;19.25;;
72797;SDS011;61084;55.816;37.036;2024-03-02T03:22:22;41.03;;;18.67;;
72797;SDS011;61084;55.816;37.036;2024-03-02T03:24:47;44.90;;;19.27;;
72797;SDS011;61084;55.816;37.036;2024-03-02T03:27:13;37.85;;;18.90;;
72797;SDS011;61084;55.816;37.036;2024-03-02T03:29:39;44.97;;;18.98;;
72797;SDS011;61084;55.816;37.036;2024-03-02T03:32:05;35.90;;;17.15;;
72797;SDS011;61084;55.816;37.036;2024-03-02T03:34:33;38.03;;;18.83;;
72797;SDS011;61084;55.816;37.036;2024-03-02T03:36:59;41.45;;;19.05;;
72797;SDS011;61084;55.816;37.036;2024-03-02T03:39:25;43.97;;;18.58;;
72797;SDS011;61084;55.816;37.036;2024-03-02T03:41:51;46.97;;;19.75;;
72797;SDS011;61084;55.816;37.036;2024-03-02T03:44:17;39.63;;;18.98;;
72797;SDS011;61084;55.816;37.036;2024-03-02T03:46:43;40.30;;;18.58;;
72797;SDS011;61084;55.816;37.036;2024-03-02T03:49:09;39.30;;;18.65;;
72797;SDS011;61084;55.816;37.036;2024-03-02T03:51:35;42.40;;;20.17;;
72797;SDS011;61084;55.816;37.036;2024-03-02T03:54:01;47.35;;;20.02;;
72797;SDS011;61084;55.816;37.036;2024-03-02T03:56:27;44.15;;;20.50;;
72797;SDS011;61084;55.816;37.036;2024-03-02T03:58:53;41.97;;;21.02;;
72797;SDS011;61084;55.816;37.036;2024-03-02T04:01:19;46.65;;;21.73;;
72797;SDS011;61084;55.816;37.036;2024-03-02T04:03:45;42.40;;;20.58;;
72797;SDS011;61084;55.816;37.036;2024-03-02T04:06:11;46.67;;;20.23;;
72797;SDS011;61084;55.816;37.036;2024-03-02T04:08:36;40.78;;;19.48;;
72797;SDS011;61084;55.816;37.036;2024-03-02T04:11:02;45.40;;;20.30;;
72797;SDS011;61084;55.816;37.036;2024-03-02T04:13:29;45.50;;;20.92;;
72797;SDS011;61084;55.816;37.036;2024-03-02T04:15:55;45.58;;;20.73;;
72797;SDS011;61084;55.816;37.036;2024-03-02T04:18:21;45.83;;;20.88;;
72797;SDS011;61084;55.816;37.036;2024-03-02T04:20:47;49.35;;;21.92;;
72797;SDS011;61084;55.816;37.036;2024-03-02T04:23:13;51.22;;;21.27;;
72797;SDS011;61084;55.816;37.036;2024-03-02T04:25:38;48.10;;;21.90;;
72797;SDS011;61084;55.816;37.036;2024-03-02T04:28:04;46.33;;;21.70;;
72797;SDS011;61084;55.816;37.036;2024-03-02T04:30:30;48.38;;;20.65;;
72797;SDS011;61084;55.816;37.036;2024-03-02T04:32:56;48.92;;;21.77;;
72797;SDS011;61084;55.816;37.036;2024-03-02T04:35:22;51.25;;;20.95;;
72797;SDS011;61084;55.816;37.036;2024-03-02T04:37:48;50.17;;;20.95;;
72797;SDS011;61084;55.816;37.036;2024-03-02T04:40:14;45.85;;;21.20;;
72797;SDS011;61084;55.816;37.036;2024-03-02T04:42:40;50.20;;;21.58;;
72797;SDS011;61084;55.816;37.036;2024-03-02T04:45:06;44.78;;;20.67;;
72797;SDS011;61084;55.816;37.036;2024-03-02T04:47:33;41.80;;;20.45;;
72797;SDS011;61084;55.816;37.036;2024-03-02T04:49:58;47.78;;;21.73;;
72797;SDS011;61084;55.816;37.036;2024-03-02T04:52:24;53.33;;;22.38;;
72797;SDS011;61084;55.816;37.036;2024-03-02T04:54:50;47.22;;;21.42;;
72797;SDS011;61084;55.816;37.036;2024-03-02T04:57:34;47.55;;;20.52;;
72797;SDS011;61084;55.816;37.036;2024-03-02T05:00:00;47.88;;;21.27;;
72797;SDS011;61084;55.816;37.036;2024-03-02T05:02:27;45.85;;;20.65;;
72797;SDS011;61084;55.816;37.036;2024-03-02T05:04:53;49.75;;;21.80;;
72797;SDS011;61084;55.816;37.036;2024-03-02T05:07:19;44.70;;;20.98;;
72797;SDS011;61084;55.816;37.036;2024-03-02T05:09:45;44.75;;;20.92;;
72797;SDS011;61084;55.816;37.036;2024-03-02T05:12:11;46.30;;;21.63;;
72797;SDS011;61084;55.816;37.036;2024-03-02T05:14:48;45.97;;;22.02;;
72797;SDS011;61084;55.816;37.036;2024-03-02T05:17:15;42.13;;;20.55;;
72797;SDS011;61084;55.816;37.036;2024-03-02T05:19:40;49.70;;;21.17;;
72797;SDS011;61084;55.816;37.036;2024-03-02T05:22:06;44.83;;;20.85;;
72797;SDS011;61084;55.816;37.036;2024-03-02T05:24:32;44.88;;;20.15;;
72797;SDS011;61084;55.816;37.036;2024-03-02T05:26:58;46.63;;;21.05;;
72797;SDS011;61084;55.816;37.036;2024-03-02T05:29:24;46.67;;;19.95;;
72797;SDS011;61084;55.816;37.036;2024-03-02T05:31:50;44.47;;;20.38;;
72797;SDS011;61084;55.816;37.036;2024-03-02T05:34:16;50.85;;;21.30;;
72797;SDS011;61084;55.816;37.036;2024-03-02T05:36:41;51.08;;;22.80;;
72797;SDS011;61084;55.816;37.036;2024-03-02T05:39:07;50.70;;;21.85;;
72797;SDS011;61084;55.816;37.036;2024-03-02T05:41:36;59.63;;;22.42;;
72797;SDS011;61084;55.816;37.036;2024-03-02T05:44:02;50.42;;;22.95;;
72797;SDS011;61084;55.816;37.036;2024-03-02T05:46:27;52.38;;;21.75;;
72797;SDS011;61084;55.816;37.036;2024-03-02T05:48:53;46.58;;;21.65;;
72797;SDS011;61084;55.816;37.036;2024-03-02T05:51:19;51.38;;;22.77;;
72797;SDS011;61084;55.816;37.036;2024-03-02T05:53:45;44.30;;;20.80;;
72797;SDS011;61084;55.816;37.036;2024-03-02T05:56:11;49.42;;;21.15;;
72797;SDS011;61084;55.816;37.036;2024-03-02T05:58:37;57.53;;;20.98;;
72797;SDS011;61084;55.816;37.036;2024-03-02T06:01:22;47.88;;;21.80;;
72797;SDS011;61084;55.816;37.036;2024-03-02T06:03:56;49.45;;;22.35;;
72797;SDS011;61084;55.816;37.036;2024-03-02T06:06:24;55.90;;;22.10;;
72797;SDS011;61084;55.816;37.036;2024-03-02T06:08:50;56.00;;;22.38;;
72797;SDS011;61084;55.816;37.036;2024-03-02T06:11:17;53.75;;;22.90;;
72797;SDS011;61084;55.816;37.036;2024-03-02T06:13:44;52.05;;;22.88;;
72797;SDS011;61084;55.816;37.036;2024-03-02T06:16:11;52.50;;;22.73;;
72797;SDS011;61084;55.816;37.036;2024-03-02T06:18:37;50.70;;;22.08;;
72797;SDS011;61084;55.816;37.036;2024-03-02T06:21:03;54.53;;;23.33;;
72797;SDS011;61084;55.816;37.036;2024-03-02T06:23:29;51.38;;;21.98;;
72797;SDS011;61084;55.816;37.036;2024-03-02T06:25:55;48.10;;;21.48;;
72797;SDS011;61084;55.816;37.036;2024-03-02T06:28:20;47.60;;;21.77;;
72797;SDS011;61084;55.816;37.036;2024-03-02T06:30:46;53.97;;;22.50;;
72797;SDS011;61084;55.816;37.036;2024-03-02T06:33:12;54.28;;;21.98;;
72797;SDS011;61084;55.816;37.036;2024-03-02T06:35:38;55.10;;;21.27;;
72797;SDS011;61084;55.816;37.036;2024-03-02T06:38:04;57.80;;;23.13;;
72797;SDS011;61084;55.816;37.036;2024-03-02T06:40:30;54.33;;;22.42;;
72797;SDS011;61084;55.816;37.036;2024-03-02T06:42:56;51.30;;;22.58;;
72797;SDS011;61084;55.816;37.036;2024-03-02T06:45:22;46.05;;;21.75;;
72797;SDS011;61084;55.816;37.036;2024-03-02T06:47:48;53.40;;;22.83;;
72797;SDS011;61084;55.816;37.036;2024-03-02T06:50:14;52.97;;;22.58;;
72797;SDS011;61084;55.816;37.036;2024-03-02T06:52:40;53.97;;;23.35;;
72797;SDS011;61084;55.816;37.036;2024-03-02T06:55:06;54.20;;;23.38;;
72797;SDS011;61084;55.816;37.036;2024-03-02T06:57:32;58.42;;;23.73;;
72797;SDS011;61084;55.816;37.036;2024-03-02T06:59:58;51.22;;;23.60;;
72797;SDS011;61084;55.816;37.036;2024-03-02T07:02:24;56.15;;;23.65;;
72797;SDS011;61084;55.816;37.036;2024-03-02T07:04:54;52.05;;;22.52;;
72797;SDS011;61084;55.816;37.036;2024-03-02T07:07:19;52.08;;;22.60;;
72797;SDS011;61084;55.816;37.036;2024-03-02T07:09:46;55.65;;;23.60;;
72797;SDS011;61084;55.816;37.036;2024-03-02T07:12:13;55.30;;;24.73;;
72797;SDS011;61084;55.816;37.036;2024-03-02T07:14:39;60.35;;;24.92;;
72797;SDS011;61084;55.816;37.036;2024-03-02T07:17:23;60.33;;;23.98;;
72797;SDS011;61084;55.816;37.036;2024-03-02T07:19:50;50.72;;;24.40;;
72797;SDS011;61084;55.816;37.036;2024-03-02T07:22:16;56.15;;;23.70;;
72797;SDS011;61084;55.816;37.036;2024-03-02T07:24:42;59.28;;;26.63;;
72797;SDS011;61084;55.816;37.036;2024-03-02T07:27:08;55.53;;;25.50;;
72797;SDS011;61084;55.816;37.036;2024-03-02T07:29:35;58.53;;;25.02;;
72797;SDS011;61084;55.816;37.036;2024-03-02T07:32:01;59.60;;;24.77;;
72797;SDS011;61084;55.816;37.036;2024-03-02T07:34:27;57.72;;;25.45;;
72797;SDS011;61084;55.816;37.036;2024-03-02T07:36:53;58.42;;;25.40;;
72797;SDS011;61084;55.816;37.036;2024-03-02T07:39:19;58.40;;;25.55;;
72797;SDS011;61084;55.816;37.036;2024-03-02T07:41:45;64.20;;;26.85;;
72797;SDS011;61084;55.816;37.036;2024-03-02T07:44:12;67.65;;;26.13;;
72797;SDS011;61084;55.816;37.036;2024-03-02T07:46:41;64.88;;;26.35;;
72797;SDS011;61084;55.816;37.036;2024-03-02T07:49:08;65.72;;;26.45;;
72797;SDS011;61084;55.816;37.036;2024-03-02T07:51:53;63.35;;;27.70;;
72797;SDS011;61084;55.816;37.036;2024-03-02T07:54:19;64.00;;;26.67;;
72797;SDS011;61084;55.816;37.036;2024-03-02T07:56:45;66.30;;;27.15;;
72797;SDS011;61084;55.816;37.036;2024-03-02T07:59:11;59.67;;;26.38;;
72797;SDS011;61084;55.816;37.036;2024-03-02T08:01:37;61.72;;;26.58;;
72797;SDS011;61084;55.816;37.036;2024-03-02T08:04:03;67.07;;;27.95;;
72797;SDS011;61084;55.816;37.036;2024-03-02T08:06:29;62.00;;;27.45;;
72797;SDS011;61084;55.816;37.036;2024-03-02T08:08:58;65.18;;;27.73;;
72797;SDS011;61084;55.816;37.036;2024-03-02T08:11:26;61.50;;;27.10;;
72797;SDS011;61084;55.816;37.036;2024-03-02T08:13:52;67.28;;;27.35;;
72797;SDS011;61084;55.816;37.036;2024-03-02T08:16:21;66.78;;;26.85;;
72797;SDS011;61084;55.816;37.036;2024-03-02T08:18:51;66.35;;;26.38;;
72797;SDS011;61084;55.816;37.036;2024-03-02T08:21:17;65.15;;;26.45;;
72797;SDS011;61084;55.816;37.036;2024-03-02T08:23:43;60.45;;;26.50;;
72797;SDS011;61084;55.816;37.036;2024-03-02T08:26:09;71.43;;;27.95;;
72797;SDS011;61084;55.816;37.036;2024-03-02T08:28:36;67.15;;;27.38;;
72797;SDS011;61084;55.816;37.036;2024-03-02T08:33:29;64.40;;;27.10;;
72797;SDS011;61084;55.816;37.036;2024-03-02T08:35:55;67.38;;;29.27;;
72797;SDS011;61084;55.816;37.036;2024-03-02T08:38:22;74.28;;;31.23;;
72797;SDS011;61084;55.816;37.036;2024-03-02T08:40:49;72.30;;;30.67;;
72797;SDS011;61084;55.816;37.036;2024-03-02T08:43:15;68.15;;;30.52;;
72797;SDS011;61084;55.816;37.036;2024-03-02T08:45:41;68.60;;;29.67;;
72797;SDS011;61084;55.816;37.036;2024-03-02T08:48:07;68.72;;;28.88;;
72797;SDS011;61084;55.816;37.036;2024-03-02T08:50:34;64.32;;;29.48;;
72797;SDS011;61084;55.816;37.036;2024-03-02T08:53:00;69.80;;;29.00;;
72797;SDS011;61084;55.816;37.036;2024-03-02T08:55:27;73.18;;;30.20;;
72797;SDS011;61084;55.816;37.036;2024-03-02T08:57:53;76.18;;;31.08;;
72797;SDS011;61084;55.816;37.036;2024-03-02T09:00:19;69.57;;;32.55;;
72797;SDS011;61084;55.816;37.036;2024-03-02T09:02:45;71.63;;;31.13;;
72797;SDS011;61084;55.816;37.036;2024-03-02T09:05:11;72.72;;;33.22;;
72797;SDS011;61084;55.816;37.036;2024-03-02T09:07:37;72.70;;;33.78;;
72797;SDS011;61084;55.816;37.036;2024-03-02T09:10:07;71.35;;;32.53;;
72797;SDS011;61084;55.816;37.036;2024-03-02T09:14:59;77.35;;;31.73;;
72797;SDS011;61084;55.816;37.036;2024-03-02T09:17:30;82.28;;;33.95;;
72797;SDS011;61084;55.816;37.036;2024-03-02T09:19:55;79.07;;;33.35;;
72797;SDS011;61084;55.816;37.036;2024-03-02T09:22:21;73.38;;;33.88;;
72797;SDS011;61084;55.816;37.036;2024-03-02T09:24:48;78.32;;;36.35;;
72797;SDS011;61084;55.816;37.036;2024-03-02T09:27:14;88.45;;;36.88;;
72797;SDS011;61084;55.816;37.036;2024-03-02T09:29:40;78.40;;;34.08;;
72797;SDS011;61084;55.816;37.036;2024-03-02T09:32:06;74.90;;;34.00;;
72797;SDS011;61084;55.816;37.036;2024-03-02T09:34:38;77.30;;;34.08;;
72797;SDS011;61084;55.816;37.036;2024-03-02T09:37:03;78.70;;;35.10;;
72797;SDS011;61084;55.816;37.036;2024-03-02T09:39:48;81.55;;;33.85;;
72797;SDS011;61084;55.816;37.036;2024-03-02T09:42:14;75.35;;;33.10;;
72797;SDS011;61084;55.816;37.036;2024-03-02T09:44:40;73.68;;;34.30;;
72797;SDS011;61084;55.816;37.036;2024-03-02T09:47:06;80.45;;;34.45;;
72797;SDS011;61084;55.816;37.036;2024-03-02T09:49:33;71.68;;;32.72;;
72797;SDS011;61084;55.816;37.036;2024-03-02T09:52:00;75.43;;;34.35;;
72797;SDS011;61084;55.816;37.036;2024-03-02T09:54:26;76.03;;;34.03;;
72797;SDS011;61084;55.816;37.036;2024-03-02T09:56:52;76.55;;;32.28;;
72797;SDS011;61084;55.816;37.036;2024-03-02T09:59:18;75.97;;;32.35;;
72797;SDS011;61084;55.816;37.036;2024-03-02T10:04:45;73.40;;;31.90;;
72797;SDS011;61084;55.816;37.036;2024-03-02T10:07:12;70.65;;;30.15;;
72797;SDS011;61084;55.816;37.036;2024-03-02T10:09:47;74.63;;;30.95;;
72797;SDS011;61084;55.816;37.036;2024-03-02T10:12:15;69.97;;;31.05;;
72797;SDS011;61084;55.816;37.036;2024-03-02T10:14:42;76.20;;;30.05;;
72797;SDS011;61084;55.816;37.036;2024-03-02T10:17:12;74.20;;;31.13;;
72797;SDS011;61084;55.816;37.036;2024-03-02T10:19:38;63.42;;;28.38;;
72797;SDS011;61084;55.816;37.036;2024-03-02T10:22:05;62.08;;;28.73;;
72797;SDS011;61084;55.816;37.036;2024-03-02T10:24:42;68.03;;;30.77;;
72797;SDS011;61084;55.816;37.036;2024-03-02T10:27:15;62.25;;;29.13;;
72797;SDS011;61084;55.816;37.036;2024-03-02T10:29:42;61.17;;;27.00;;
72797;SDS011;61084;55.816;37.036;2024-03-02T10:32:11;54.85;;;26.75;;
72797;SDS011;61084;55.816;37.036;2024-03-02T10:34:41;58.83;;;26.50;;
72797;SDS011;61084;55.816;37.036;2024-03-02T10:37:11;61.63;;;28.35;;
72797;SDS011;61084;55.816;37.036;2024-03-02T10:39:38;64.90;;;27.23;;
72797;SDS011;61084;55.816;37.036;2024-03-02T10:42:08;58.08;;;27.55;;
72797;SDS011;61084;55.816;37.036;2024-03-02T10:44:34;64.15;;;27.45;;
72797;SDS011;61084;55.816;37.036;2024-03-02T10:47:01;59.30;;;27.45;;
72797;SDS011;61084;55.816;37.036;2024-03-02T10:49:32;60.25;;;26.77;;
72797;SDS011;61084;55.816;37.036;2024-03-02T10:51:59;69.25;;;29.75;;
72797;SDS011;61084;55.816;37.036;2024-03-02T10:54:25;61.67;;;25.63;;
72797;SDS011;61084;55.816;37.036;2024-03-02T10:56:58;67.38;;;28.17;;
72797;SDS011;61084;55.816;37.036;2024-03-02T10:59:35;63.92;;;29.02;;
72797;SDS011;61084;55.816;37.036;2024-03-02T11:02:02;63.92;;;27.67;;
72797;SDS011;61084;55.816;37.036;2024-03-02T11:04:30;64.45;;;28.48;;
72797;SDS011;61084;55.816;37.036;2024-03-02T11:07:00;68.18;;;27.55;;
72797;SDS011;61084;55.816;37.036;2024-03-02T11:09:29;72.28;;;29.13;;
72797;SDS011;61084;55.816;37.036;2024-03-02T11:12:06;69.85;;;28.80;;
72797;SDS011;61084;55.816;37.036;2024-03-02T11:14:40;78.18;;;30.00;;
72797;SDS011;61084;55.816;37.036;2024-03-02T11:17:10;65.28;;;28.23;;
72797;SDS011;61084;55.816;37.036;2024-03-02T11:19:40;66.75;;;29.70;;
72797;SDS011;61084;55.816;37.036;2024-03-02T11:22:06;74.22;;;31.80;;
72797;SDS011;61084;55.816;37.036;2024-03-02T11:24:34;74.00;;;32.25;;
72797;SDS011;61084;55.816;37.036;2024-03-02T11:27:04;72.72;;;29.83;;
72797;SDS011;61084;55.816;37.036;2024-03-02T11:32:16;74.68;;;31.80;;
72797;SDS011;61084;55.816;37.036;2024-03-02T11:34:47;75.18;;;33.13;;
72797;SDS011;61084;55.816;37.036;2024-03-02T11:37:19;71.60;;;31.08;;
72797;SDS011;61084;55.816;37.036;2024-03-02T11:39:49;69.95;;;30.38;;
72797;SDS011;61084;55.816;37.036;2024-03-02T11:42:16;72.60;;;30.55;;
72797;SDS011;61084;55.816;37.036;2024-03-02T11:44:43;67.30;;;29.42;;
72797;SDS011;61084;55.816;37.036;2024-03-02T11:47:12;65.43;;;28.88;;
72797;SDS011;61084;55.816;37.036;2024-03-02T11:52:12;58.13;;;23.00;;
72797;SDS011;61084;55.816;37.036;2024-03-02T11:54:41;58.35;;;24.58;;
72797;SDS011;61084;55.816;37.036;2024-03-02T11:57:15;53.35;;;22.88;;
72797;SDS011;61084;55.816;37.036;2024-03-02T11:59:42;50.05;;;24.33;;
72797;SDS011;61084;55.816;37.036;2024-03-02T12:02:16;57.28;;;24.42;;
72797;SDS011;61084;55.816;37.036;2024-03-02T12:04:46;57.42;;;25.50;;
72797;SDS011;61084;55.816;37.036;2024-03-02T12:07:19;61.58;;;26.40;;
72797;SDS011;61084;55.816;37.036;2024-03-02T12:09:47;64.75;;;25.50;;
72797;SDS011;61084;55.816;37.036;2024-03-02T12:12:14;59.20;;;24.90;;
72797;SDS011;61084;55.816;37.036;2024-03-02T12:14:52;60.60;;;27.08;;
72797;SDS011;61084;55.816;37.036;2024-03-02T12:17:21;56.75;;;24.80;;
72797;SDS011;61084;55.816;37.036;2024-03-02T12:19:48;61.22;;;26.15;;
72797;SDS011;61084;55.816;37.036;2024-03-02T12:22:14;61.60;;;28.25;;
72797;SDS011;61084;55.816;37.036;2024-03-02T12:24:41;59.95;;;27.40;;
72797;SDS011;61084;55.816;37.036;2024-03-02T12:27:11;62.45;;;27.40;;
72797;SDS011;61084;55.816;37.036;2024-03-02T12:29:38;76.35;;;29.90;;
72797;SDS011;61084;55.816;37.036;2024-03-02T12:32:06;67.30;;;30.15;;
72797;SDS011;61084;55.816;37.036;2024-03-02T12:34:32;65.78;;;29.75;;
72797;SDS011;61084;55.816;37.036;2024-03-02T12:36:59;64.88;;;30.50;;
72797;SDS011;61084;55.816;37.036;2024-03-02T12:39:25;67.60;;;31.33;;
72797;SDS011;61084;55.816;37.036;2024-03-02T12:41:52;66.03;;;29.95;;
72797;SDS011;61084;55.816;37.036;2024-03-02T12:44:19;69.55;;;29.27;;
72797;SDS011;61084;55.816;37.036;2024-03-02T12:46:46;69.97;;;30.55;;
72797;SDS011;61084;55.816;37.036;2024-03-02T12:49:13;69.63;;;30.88;;
72797;SDS011;61084;55.816;37.036;2024-03-02T12:51:46;62.20;;;28.30;;
72797;SDS011;61084;55.816;37.036;2024-03-02T12:54:17;65.35;;;27.58;;
72797;SDS011;61084;55.816;37.036;2024-03-02T12:56:45;60.50;;;26.45;;
72797;SDS011;61084;55.816;37.036;2024-03-02T12:59:18;63.22;;;28.27;;
72797;SDS011;61084;55.816;37.036;2024-03-02T13:01:53;55.45;;;25.83;;
72797;SDS011;61084;55.816;37.036;2024-03-02T13:04:26;61.10;;;24.52;;
72797;SDS011;61084;55.816;37.036;2024-03-02T13:06:54;54.63;;;23.85;;
72797;SDS011;61084;55.816;37.036;2024-03-02T13:09:23;57.95;;;23.67;;
72797;SDS011;61084;55.816;37.036;2024-03-02T13:11:50;64.50;;;26.67;;
72797;SDS011;61084;55.816;37.036;2024-03-02T13:14:16;59.33;;;23.27;;
72797;SDS011;61084;55.816;37.036;2024-03-02T13:16:42;54.95;;;22.77;;
72797;SDS011;61084;55.816;37.036;2024-03-02T13:19:13;44.17;;;22.13;;
72797;SDS011;61084;55.816;37.036;2024-03-02T13:21:39;53.30;;;23.85;;
72797;SDS011;61084;55.816;37.036;2024-03-02T13:24:05;50.85;;;24.40;;
72797;SDS011;61084;55.816;37.036;2024-03-02T13:26:31;53.33;;;23.33;;
72797;SDS011;61084;55.816;37.036;2024-03-02T13:28:57;53.45;;;23.23;;
72797;SDS011;61084;55.816;37.036;2024-03-02T13:31:23;56.65;;;24.52;;
72797;SDS011;61084;55.816;37.036;2024-03-02T13:33:49;48.55;;;23.88;;
72797;SDS011;61084;55.816;37.036;2024-03-02T13:36:15;52.65;;;22.67;;
72797;SDS011;61084;55.816;37.036;2024-03-02T13:38:41;53.47;;;23.63;;
72797;SDS011;61084;55.816;37.036;2024-03-02T13:41:07;56.67;;;23.55;;
72797;SDS011;61084;55.816;37.036;2024-03-02T13:43:33;47.83;;;22.58;;
72797;SDS011;61084;55.816;37.036;2024-03-02T13:46:01;52.17;;;23.80;;
72797;SDS011;61084;55.816;37.036;2024-03-02T13:50:53;48.30;;;21.58;;
72797;SDS011;61084;55.816;37.036;2024-03-02T13:53:19;49.70;;;21.88;;
72797;SDS011;61084;55.816;37.036;2024-03-02T13:55:46;51.22;;;22.70;;
72797;SDS011;61084;55.816;37.036;2024-03-02T13:58:12;49.97;;;22.55;;
72797;SDS011;61084;55.816;37.036;2024-03-02T14:00:38;49.13;;;22.13;;
72797;SDS011;61084;55.816;37.036;2024-03-02T14:03:04;48.97;;;22.80;;
72797;SDS011;61084;55.816;37.036;2024-03-02T14:05:32;40.90;;;20.50;;
72797;SDS011;61084;55.816;37.036;2024-03-02T14:07:58;52.42;;;22.38;;
72797;SDS011;61084;55.816;37.036;2024-03-02T14:10:27;52.17;;;22.30;;
72797;SDS011;61084;55.816;37.036;2024-03-02T14:12:53;59.83;;;22.60;;
72797;SDS011;61084;55.816;37.036;2024-03-02T14:15:37;51.55;;;21.25;;
72797;SDS011;61084;55.816;37.036;2024-03-02T14:18:05;50.15;;;23.20;;
72797;SDS011;61084;55.816;37.036;2024-03-02T14:20:31;51.80;;;22.52;;
72797;SDS011;61084;55.816;37.036;2024-03-02T14:23:18;50.28;;;22.45;;
72797;SDS011;61084;55.816;37.036;2024-03-02T14:25:47;48.05;;;19.88;;
72797;SDS011;61084;55.816;37.036;2024-03-02T14:28:13;48.70;;;22.25;;
72797;SDS011;61084;55.816;37.036;2024-03-02T14:30:41;45.75;;;20.60;;
72797;SDS011;61084;55.816;37.036;2024-03-02T14:33:07;48.78;;;21.08;;